sensor_id;sensor_type;location;lat;lon;timestamp;temperature;humidity
32522;DHT22;18963;51.504;5.316;2023-05-07T00:02:21;13.20;99.90
32522;DHT22;18963;51.504;5.316;2023-05-07T00:04:48;13.30;99.90
32522;DHT22;18963;51.504;5.316;2023-05-07T00:07:14;13.30;99.90
32522;DHT22;18963;51.504;5.316;2023-05-07T00:09:40;13.40;99.90
32522;DHT22;18963;51.504;5.316;2023-05-07T00:12:05;13.40;99.90
32522;DHT22;18963;51.504;5.316;2023-05-07T00:14:31;13.40;99.90
32522;DHT22;18963;51.504;5.316;2023-05-07T00:16:57;13.40;99.90
32522;DHT22;18963;51.504;5.316;2023-05-07T00:19:22;13.50;99.90
32522;DHT22;18963;51.504;5.316;2023-05-07T00:21:48;13.50;99.90
32522;DHT22;18963;51.504;5.316;2023-05-07T00:24:13;13.60;99.90
32522;DHT22;18963;51.504;5.316;2023-05-07T00:26:39;13.60;99.90
32522;DHT22;18963;51.504;5.316;2023-05-07T00:29:05;13.60;99.90
32522;DHT22;18963;51.504;5.316;2023-05-07T00:31:30;13.60;99.90
32522;DHT22;18963;51.504;5.316;2023-05-07T00:33:56;13.50;99.90
32522;DHT22;18963;51.504;5.316;2023-05-07T00:36:21;13.60;99.90
32522;DHT22;18963;51.504;5.316;2023-05-07T00:38:47;13.60;99.90
32522;DHT22;18963;51.504;5.316;2023-05-07T00:41:12;13.60;99.90
32522;DHT22;18963;51.504;5.316;2023-05-07T00:43:38;13.60;99.90
32522;DHT22;18963;51.504;5.316;2023-05-07T00:46:03;13.60;99.90
32522;DHT22;18963;51.504;5.316;2023-05-07T00:48:30;13.60;99.90
32522;DHT22;18963;51.504;5.316;2023-05-07T00:50:56;13.70;99.90
32522;DHT22;18963;51.504;5.316;2023-05-07T00:53:22;13.70;99.90
32522;DHT22;18963;51.504;5.316;2023-05-07T00:55:48;13.70;99.90
32522;DHT22;18963;51.504;5.316;2023-05-07T00:58:14;13.70;99.90
32522;DHT22;18963;51.504;5.316;2023-05-07T01:00:40;13.70;99.90
32522;DHT22;18963;51.504;5.316;2023-05-07T01:03:05;13.70;99.90
32522;DHT22;18963;51.504;5.316;2023-05-07T01:05:31;13.70;99.90
32522;DHT22;18963;51.504;5.316;2023-05-07T01:07:58;13.70;99.90
32522;DHT22;18963;51.504;5.316;2023-05-07T01:10:24;13.70;99.90
32522;DHT22;18963;51.504;5.316;2023-05-07T01:12:51;13.70;99.90
32522;DHT22;18963;51.504;5.316;2023-05-07T01:15:17;13.70;99.90
32522;DHT22;18963;51.504;5.316;2023-05-07T01:17:44;13.70;99.90
32522;DHT22;18963;51.504;5.316;2023-05-07T01:20:10;13.70;99.90
32522;DHT22;18963;51.504;5.316;2023-05-07T01:22:40;13.70;99.90
32522;DHT22;18963;51.504;5.316;2023-05-07T01:25:06;13.70;99.90
32522;DHT22;18963;51.504;5.316;2023-05-07T01:27:33;13.70;99.90
32522;DHT22;18963;51.504;5.316;2023-05-07T01:30:00;13.70;99.90
32522;DHT22;18963;51.504;5.316;2023-05-07T01:35:03;13.80;99.90
32522;DHT22;18963;51.504;5.316;2023-05-07T01:37:30;13.80;99.90
32522;DHT22;18963;51.504;5.316;2023-05-07T01:39:56;13.80;99.90
32522;DHT22;18963;51.504;5.316;2023-05-07T01:42:22;13.70;99.90
32522;DHT22;18963;51.504;5.316;2023-05-07T01:44:48;13.70;99.90
32522;DHT22;18963;51.504;5.316;2023-05-07T01:47:14;13.70;99.90
32522;DHT22;18963;51.504;5.316;2023-05-07T01:49:40;13.60;99.90
32522;DHT22;18963;51.504;5.316;2023-05-07T01:52:06;13.70;99.90
32522;DHT22;18963;51.504;5.316;2023-05-07T01:54:32;13.60;99.90
32522;DHT22;18963;51.504;5.316;2023-05-07T01:56:57;13.60;99.90
32522;DHT22;18963;51.504;5.316;2023-05-07T01:59:23;13.60;99.90
32522;DHT22;18963;51.504;5.316;2023-05-07T02:01:49;13.60;99.90
32522;DHT22;18963;51.504;5.316;2023-05-07T02:04:14;13.60;99.90
32522;DHT22;18963;51.504;5.316;2023-05-07T02:06:40;13.60;99.90
32522;DHT22;18963;51.504;5.316;2023-05-07T02:09:05;13.50;99.90
32522;DHT22;18963;51.504;5.316;2023-05-07T02:11:31;13.50;99.90
32522;DHT22;18963;51.504;5.316;2023-05-07T02:13:57;13.50;99.90
32522;DHT22;18963;51.504;5.316;2023-05-07T02:16:22;13.50;99.90
32522;DHT22;18963;51.504;5.316;2023-05-07T02:18:49;13.50;99.90
32522;DHT22;18963;51.504;5.316;2023-05-07T02:21:14;13.50;99.90
32522;DHT22;18963;51.504;5.316;2023-05-07T02:23:40;13.50;99.90
32522;DHT22;18963;51.504;5.316;2023-05-07T02:26:06;13.50;99.90
32522;DHT22;18963;51.504;5.316;2023-05-07T02:28:31;13.50;99.90
32522;DHT22;18963;51.504;5.316;2023-05-07T02:30:57;13.50;99.90
32522;DHT22;18963;51.504;5.316;2023-05-07T02:33:24;13.60;99.90
32522;DHT22;18963;51.504;5.316;2023-05-07T02:35:50;13.50;99.90
32522;DHT22;18963;51.504;5.316;2023-05-07T02:38:17;13.60;99.90
32522;DHT22;18963;51.504;5.316;2023-05-07T02:40:42;13.50;99.90
32522;DHT22;18963;51.504;5.316;2023-05-07T02:43:09;13.50;99.90
32522;DHT22;18963;51.504;5.316;2023-05-07T02:45:35;13.50;99.90
32522;DHT22;18963;51.504;5.316;2023-05-07T02:48:03;13.50;99.90
32522;DHT22;18963;51.504;5.316;2023-05-07T02:50:28;13.50;99.90
32522;DHT22;18963;51.504;5.316;2023-05-07T02:52:55;13.50;99.90
32522;DHT22;18963;51.504;5.316;2023-05-07T02:55:20;13.50;99.90
32522;DHT22;18963;51.504;5.316;2023-05-07T02:57:46;13.50;99.90
32522;DHT22;18963;51.504;5.316;2023-05-07T03:00:13;13.50;99.90
32522;DHT22;18963;51.504;5.316;2023-05-07T03:02:40;13.50;99.90
32522;DHT22;18963;51.504;5.316;2023-05-07T03:05:06;13.50;99.90
32522;DHT22;18963;51.504;5.316;2023-05-07T03:07:32;13.60;99.90
32522;DHT22;18963;51.504;5.316;2023-05-07T03:09:57;13.60;99.90
32522;DHT22;18963;51.504;5.316;2023-05-07T03:12:23;13.60;99.90
32522;DHT22;18963;51.504;5.316;2023-05-07T03:14:49;13.60;99.90
32522;DHT22;18963;51.504;5.316;2023-05-07T03:17:14;13.60;99.90
32522;DHT22;18963;51.504;5.316;2023-05-07T03:19:41;13.60;99.90
32522;DHT22;18963;51.504;5.316;2023-05-07T03:22:07;13.60;99.90
32522;DHT22;18963;51.504;5.316;2023-05-07T03:24:32;13.60;99.90
32522;DHT22;18963;51.504;5.316;2023-05-07T03:26:58;13.60;99.90
32522;DHT22;18963;51.504;5.316;2023-05-07T03:29:24;13.60;99.90
32522;DHT22;18963;51.504;5.316;2023-05-07T03:31:49;13.60;99.90
32522;DHT22;18963;51.504;5.316;2023-05-07T03:34:15;13.60;99.90
32522;DHT22;18963;51.504;5.316;2023-05-07T03:36:42;13.50;99.90
32522;DHT22;18963;51.504;5.316;2023-05-07T03:39:08;13.50;99.90
32522;DHT22;18963;51.504;5.316;2023-05-07T03:41:33;13.50;99.90
32522;DHT22;18963;51.504;5.316;2023-05-07T03:43:59;13.50;99.90
32522;DHT22;18963;51.504;5.316;2023-05-07T03:46:24;13.50;99.90
32522;DHT22;18963;51.504;5.316;2023-05-07T03:48:51;13.50;99.90
32522;DHT22;18963;51.504;5.316;2023-05-07T03:51:17;13.50;99.90
32522;DHT22;18963;51.504;5.316;2023-05-07T03:53:43;13.50;99.90
32522;DHT22;18963;51.504;5.316;2023-05-07T03:56:08;13.60;99.90
32522;DHT22;18963;51.504;5.316;2023-05-07T03:58:34;13.60;99.90
32522;DHT22;18963;51.504;5.316;2023-05-07T04:01:00;13.60;99.90
32522;DHT22;18963;51.504;5.316;2023-05-07T04:03:25;13.60;99.90
32522;DHT22;18963;51.504;5.316;2023-05-07T04:05:51;13.60;99.90
32522;DHT22;18963;51.504;5.316;2023-05-07T04:08:16;13.60;99.90
32522;DHT22;18963;51.504;5.316;2023-05-07T04:10:42;13.60;99.90
32522;DHT22;18963;51.504;5.316;2023-05-07T04:13:08;13.60;99.90
32522;DHT22;18963;51.504;5.316;2023-05-07T04:15:33;13.60;99.90
32522;DHT22;18963;51.504;5.316;2023-05-07T04:17:59;13.60;99.90
32522;DHT22;18963;51.504;5.316;2023-05-07T04:20:24;13.50;99.90
32522;DHT22;18963;51.504;5.316;2023-05-07T04:22:50;13.50;99.90
32522;DHT22;18963;51.504;5.316;2023-05-07T04:25:16;13.50;99.90
32522;DHT22;18963;51.504;5.316;2023-05-07T04:27:41;13.50;99.90
32522;DHT22;18963;51.504;5.316;2023-05-07T04:30:07;13.50;99.90
32522;DHT22;18963;51.504;5.316;2023-05-07T04:32:33;13.60;99.90
32522;DHT22;18963;51.504;5.316;2023-05-07T04:34:59;13.60;99.90
32522;DHT22;18963;51.504;5.316;2023-05-07T04:37:25;13.60;99.90
32522;DHT22;18963;51.504;5.316;2023-05-07T04:39:51;13.60;99.90
32522;DHT22;18963;51.504;5.316;2023-05-07T04:42:17;13.60;99.90
32522;DHT22;18963;51.504;5.316;2023-05-07T04:44:44;13.60;99.90
32522;DHT22;18963;51.504;5.316;2023-05-07T04:47:10;13.60;99.90
32522;DHT22;18963;51.504;5.316;2023-05-07T04:49:37;13.60;99.90
32522;DHT22;18963;51.504;5.316;2023-05-07T04:52:03;13.60;99.90
32522;DHT22;18963;51.504;5.316;2023-05-07T04:54:29;13.70;99.90
32522;DHT22;18963;51.504;5.316;2023-05-07T04:56:55;13.70;99.90
32522;DHT22;18963;51.504;5.316;2023-05-07T04:59:20;13.70;99.90
32522;DHT22;18963;51.504;5.316;2023-05-07T05:01:46;13.70;99.90
32522;DHT22;18963;51.504;5.316;2023-05-07T05:04:12;13.80;99.90
32522;DHT22;18963;51.504;5.316;2023-05-07T05:06:38;13.80;99.90
32522;DHT22;18963;51.504;5.316;2023-05-07T05:09:04;13.80;99.90
32522;DHT22;18963;51.504;5.316;2023-05-07T05:11:30;13.90;99.90
32522;DHT22;18963;51.504;5.316;2023-05-07T05:13:56;14.00;99.90
32522;DHT22;18963;51.504;5.316;2023-05-07T05:16:22;14.00;99.90
32522;DHT22;18963;51.504;5.316;2023-05-07T05:18:47;14.10;99.90
32522;DHT22;18963;51.504;5.316;2023-05-07T05:21:13;14.10;99.90
32522;DHT22;18963;51.504;5.316;2023-05-07T05:23:39;14.10;99.90
32522;DHT22;18963;51.504;5.316;2023-05-07T05:26:04;14.20;99.90
32522;DHT22;18963;51.504;5.316;2023-05-07T05:28:30;14.30;99.90
32522;DHT22;18963;51.504;5.316;2023-05-07T05:30:55;14.30;99.90
32522;DHT22;18963;51.504;5.316;2023-05-07T05:33:21;14.40;99.90
32522;DHT22;18963;51.504;5.316;2023-05-07T05:35:47;14.50;99.90
32522;DHT22;18963;51.504;5.316;2023-05-07T05:38:12;14.50;99.90
32522;DHT22;18963;51.504;5.316;2023-05-07T05:40:38;14.50;99.90
32522;DHT22;18963;51.504;5.316;2023-05-07T05:43:04;14.60;99.90
32522;DHT22;18963;51.504;5.316;2023-05-07T05:45:29;14.70;99.90
32522;DHT22;18963;51.504;5.316;2023-05-07T05:47:56;14.70;99.90
32522;DHT22;18963;51.504;5.316;2023-05-07T05:50:22;14.80;99.90
32522;DHT22;18963;51.504;5.316;2023-05-07T05:52:47;14.90;99.90
32522;DHT22;18963;51.504;5.316;2023-05-07T05:55:13;14.90;99.90
32522;DHT22;18963;51.504;5.316;2023-05-07T05:57:39;15.00;99.90
32522;DHT22;18963;51.504;5.316;2023-05-07T06:00:06;15.10;99.90
32522;DHT22;18963;51.504;5.316;2023-05-07T06:02:32;15.10;99.90
32522;DHT22;18963;51.504;5.316;2023-05-07T06:04:57;15.20;99.90
32522;DHT22;18963;51.504;5.316;2023-05-07T06:07:23;15.20;99.90
32522;DHT22;18963;51.504;5.316;2023-05-07T06:09:48;15.30;99.90
32522;DHT22;18963;51.504;5.316;2023-05-07T06:12:14;15.30;99.90
32522;DHT22;18963;51.504;5.316;2023-05-07T06:14:40;15.40;99.90
32522;DHT22;18963;51.504;5.316;2023-05-07T06:17:07;15.40;99.90
32522;DHT22;18963;51.504;5.316;2023-05-07T06:19:33;15.50;99.90
32522;DHT22;18963;51.504;5.316;2023-05-07T06:21:58;15.50;99.90
32522;DHT22;18963;51.504;5.316;2023-05-07T06:24:26;15.50;99.90
32522;DHT22;18963;51.504;5.316;2023-05-07T06:26:52;15.60;99.90
32522;DHT22;18963;51.504;5.316;2023-05-07T06:29:18;15.70;99.90
32522;DHT22;18963;51.504;5.316;2023-05-07T06:31:43;15.70;99.90
32522;DHT22;18963;51.504;5.316;2023-05-07T06:34:10;15.80;99.90
32522;DHT22;18963;51.504;5.316;2023-05-07T06:36:35;15.90;99.90
32522;DHT22;18963;51.504;5.316;2023-05-07T06:39:01;16.00;99.90
32522;DHT22;18963;51.504;5.316;2023-05-07T06:41:27;16.10;99.90
32522;DHT22;18963;51.504;5.316;2023-05-07T06:43:52;16.10;99.90
32522;DHT22;18963;51.504;5.316;2023-05-07T06:46:18;16.30;99.90
32522;DHT22;18963;51.504;5.316;2023-05-07T06:48:43;16.30;99.90
32522;DHT22;18963;51.504;5.316;2023-05-07T06:51:09;16.40;99.90
32522;DHT22;18963;51.504;5.316;2023-05-07T06:53:35;16.50;99.90
32522;DHT22;18963;51.504;5.316;2023-05-07T06:56:01;16.60;99.90
32522;DHT22;18963;51.504;5.316;2023-05-07T06:58:26;16.70;99.90
32522;DHT22;18963;51.504;5.316;2023-05-07T07:00:52;16.70;99.90
32522;DHT22;18963;51.504;5.316;2023-05-07T07:03:17;16.70;99.90
32522;DHT22;18963;51.504;5.316;2023-05-07T07:05:43;16.70;99.90
32522;DHT22;18963;51.504;5.316;2023-05-07T07:08:09;16.70;99.90
32522;DHT22;18963;51.504;5.316;2023-05-07T07:10:35;16.70;99.90
32522;DHT22;18963;51.504;5.316;2023-05-07T07:13:01;16.70;99.90
32522;DHT22;18963;51.504;5.316;2023-05-07T07:15:26;16.60;99.90
32522;DHT22;18963;51.504;5.316;2023-05-07T07:17:52;16.60;99.90
32522;DHT22;18963;51.504;5.316;2023-05-07T07:20:18;16.60;99.90
32522;DHT22;18963;51.504;5.316;2023-05-07T07:22:43;16.60;99.90
32522;DHT22;18963;51.504;5.316;2023-05-07T07:25:09;16.60;99.90
32522;DHT22;18963;51.504;5.316;2023-05-07T07:27:36;16.70;99.90
32522;DHT22;18963;51.504;5.316;2023-05-07T07:30:02;16.80;99.90
32522;DHT22;18963;51.504;5.316;2023-05-07T07:32:27;16.90;99.90
32522;DHT22;18963;51.504;5.316;2023-05-07T07:34:53;16.90;99.90
32522;DHT22;18963;51.504;5.316;2023-05-07T07:37:19;17.00;99.90
32522;DHT22;18963;51.504;5.316;2023-05-07T07:39:44;17.10;99.90
32522;DHT22;18963;51.504;5.316;2023-05-07T07:42:10;17.20;99.90
32522;DHT22;18963;51.504;5.316;2023-05-07T07:44:36;17.30;99.90
32522;DHT22;18963;51.504;5.316;2023-05-07T07:47:01;17.40;99.90
32522;DHT22;18963;51.504;5.316;2023-05-07T07:49:27;17.40;99.90
32522;DHT22;18963;51.504;5.316;2023-05-07T07:51:52;17.50;99.90
32522;DHT22;18963;51.504;5.316;2023-05-07T07:54:18;17.60;99.90
32522;DHT22;18963;51.504;5.316;2023-05-07T07:56:44;17.70;99.90
32522;DHT22;18963;51.504;5.316;2023-05-07T07:59:09;17.80;99.90
32522;DHT22;18963;51.504;5.316;2023-05-07T08:01:35;18.00;99.90
32522;DHT22;18963;51.504;5.316;2023-05-07T08:04:00;18.20;99.90
32522;DHT22;18963;51.504;5.316;2023-05-07T08:06:28;18.30;99.90
32522;DHT22;18963;51.504;5.316;2023-05-07T08:08:54;18.50;99.90
32522;DHT22;18963;51.504;5.316;2023-05-07T08:11:20;18.60;99.90
32522;DHT22;18963;51.504;5.316;2023-05-07T08:13:46;18.70;99.90
32522;DHT22;18963;51.504;5.316;2023-05-07T08:16:12;18.70;99.90
32522;DHT22;18963;51.504;5.316;2023-05-07T08:18:38;18.60;99.90
32522;DHT22;18963;51.504;5.316;2023-05-07T08:21:04;18.80;99.90
32522;DHT22;18963;51.504;5.316;2023-05-07T08:23:29;18.80;99.90
32522;DHT22;18963;51.504;5.316;2023-05-07T08:25:55;18.90;99.90
32522;DHT22;18963;51.504;5.316;2023-05-07T08:28:21;18.90;99.90
32522;DHT22;18963;51.504;5.316;2023-05-07T08:30:47;19.10;99.90
32522;DHT22;18963;51.504;5.316;2023-05-07T08:33:12;19.20;99.90
32522;DHT22;18963;51.504;5.316;2023-05-07T08:35:38;19.30;99.90
32522;DHT22;18963;51.504;5.316;2023-05-07T08:38:04;19.30;99.90
32522;DHT22;18963;51.504;5.316;2023-05-07T08:40:36;19.30;99.90
32522;DHT22;18963;51.504;5.316;2023-05-07T08:43:02;19.30;99.90
32522;DHT22;18963;51.504;5.316;2023-05-07T08:45:30;19.30;99.90
32522;DHT22;18963;51.504;5.316;2023-05-07T08:48:03;19.30;99.90
32522;DHT22;18963;51.504;5.316;2023-05-07T08:50:31;19.30;99.90
32522;DHT22;18963;51.504;5.316;2023-05-07T08:52:56;19.40;99.90
32522;DHT22;18963;51.504;5.316;2023-05-07T08:55:23;19.50;99.90
32522;DHT22;18963;51.504;5.316;2023-05-07T08:57:49;19.70;99.90
32522;DHT22;18963;51.504;5.316;2023-05-07T09:00:15;19.80;99.90
32522;DHT22;18963;51.504;5.316;2023-05-07T09:02:41;20.00;99.90
32522;DHT22;18963;51.504;5.316;2023-05-07T09:05:07;20.00;99.90
32522;DHT22;18963;51.504;5.316;2023-05-07T09:07:33;19.90;99.90
32522;DHT22;18963;51.504;5.316;2023-05-07T09:10:02;19.90;99.90
32522;DHT22;18963;51.504;5.316;2023-05-07T09:12:27;20.00;99.90
32522;DHT22;18963;51.504;5.316;2023-05-07T09:14:53;20.20;99.90
32522;DHT22;18963;51.504;5.316;2023-05-07T09:17:18;20.40;99.90
32522;DHT22;18963;51.504;5.316;2023-05-07T09:19:45;20.50;99.90
32522;DHT22;18963;51.504;5.316;2023-05-07T09:22:11;20.50;99.90
32522;DHT22;18963;51.504;5.316;2023-05-07T09:24:37;20.60;99.90
32522;DHT22;18963;51.504;5.316;2023-05-07T09:27:06;20.60;99.90
32522;DHT22;18963;51.504;5.316;2023-05-07T09:29:34;20.70;99.90
32522;DHT22;18963;51.504;5.316;2023-05-07T09:32:04;20.80;99.90
32522;DHT22;18963;51.504;5.316;2023-05-07T09:34:30;20.90;99.90
32522;DHT22;18963;51.504;5.316;2023-05-07T09:37:01;21.00;99.90
32522;DHT22;18963;51.504;5.316;2023-05-07T09:39:26;21.10;99.90
32522;DHT22;18963;51.504;5.316;2023-05-07T09:42:03;21.10;99.90
32522;DHT22;18963;51.504;5.316;2023-05-07T09:44:31;21.10;99.90
32522;DHT22;18963;51.504;5.316;2023-05-07T09:47:00;21.10;99.90
32522;DHT22;18963;51.504;5.316;2023-05-07T09:49:29;21.20;99.90
32522;DHT22;18963;51.504;5.316;2023-05-07T09:51:58;20.90;99.90
32522;DHT22;18963;51.504;5.316;2023-05-07T09:54:25;21.00;99.90
32522;DHT22;18963;51.504;5.316;2023-05-07T09:56:52;21.10;99.90
32522;DHT22;18963;51.504;5.316;2023-05-07T09:59:18;20.70;99.90
32522;DHT22;18963;51.504;5.316;2023-05-07T10:01:45;20.80;99.90
32522;DHT22;18963;51.504;5.316;2023-05-07T10:04:11;20.70;99.90
32522;DHT22;18963;51.504;5.316;2023-05-07T10:06:38;20.70;99.90
32522;DHT22;18963;51.504;5.316;2023-05-07T10:09:04;20.80;99.90
32522;DHT22;18963;51.504;5.316;2023-05-07T10:11:34;20.70;99.90
32522;DHT22;18963;51.504;5.316;2023-05-07T10:14:00;20.70;99.90
32522;DHT22;18963;51.504;5.316;2023-05-07T10:16:36;20.60;99.90
32522;DHT22;18963;51.504;5.316;2023-05-07T10:19:06;20.60;99.90
32522;DHT22;18963;51.504;5.316;2023-05-07T10:21:41;20.80;99.90
32522;DHT22;18963;51.504;5.316;2023-05-07T10:24:26;20.60;99.90
32522;DHT22;18963;51.504;5.316;2023-05-07T10:26:53;20.70;99.90
32522;DHT22;18963;51.504;5.316;2023-05-07T10:34:45;21.00;99.90
32522;DHT22;18963;51.504;5.316;2023-05-07T10:37:12;21.20;99.90
32522;DHT22;18963;51.504;5.316;2023-05-07T10:39:38;21.30;99.90
32522;DHT22;18963;51.504;5.316;2023-05-07T10:42:14;21.30;99.90
32522;DHT22;18963;51.504;5.316;2023-05-07T10:44:40;21.50;99.90
32522;DHT22;18963;51.504;5.316;2023-05-07T10:47:10;21.70;99.90
32522;DHT22;18963;51.504;5.316;2023-05-07T10:52:18;22.10;99.90
32522;DHT22;18963;51.504;5.316;2023-05-07T10:54:45;22.20;99.90
32522;DHT22;18963;51.504;5.316;2023-05-07T10:57:33;22.40;99.90
32522;DHT22;18963;51.504;5.316;2023-05-07T11:00:01;22.30;99.90
32522;DHT22;18963;51.504;5.316;2023-05-07T11:05:24;22.10;99.90
32522;DHT22;18963;51.504;5.316;2023-05-07T11:07:57;22.10;99.90
32522;DHT22;18963;51.504;5.316;2023-05-07T11:10:23;22.30;99.90
32522;DHT22;18963;51.504;5.316;2023-05-07T11:12:52;22.60;99.90
32522;DHT22;18963;51.504;5.316;2023-05-07T11:15:36;22.80;99.90
32522;DHT22;18963;51.504;5.316;2023-05-07T11:18:05;22.90;99.90
32522;DHT22;18963;51.504;5.316;2023-05-07T11:20:50;23.20;99.90
32522;DHT22;18963;51.504;5.316;2023-05-07T11:26:10;23.50;99.90
32522;DHT22;18963;51.504;5.316;2023-05-07T11:28:43;23.50;99.90
32522;DHT22;18963;51.504;5.316;2023-05-07T11:31:09;23.60;99.90
32522;DHT22;18963;51.504;5.316;2023-05-07T11:33:36;23.40;99.90
32522;DHT22;18963;51.504;5.316;2023-05-07T11:36:04;23.20;99.90
32522;DHT22;18963;51.504;5.316;2023-05-07T11:38:30;23.10;99.90
32522;DHT22;18963;51.504;5.316;2023-05-07T11:41:00;23.10;99.90
32522;DHT22;18963;51.504;5.316;2023-05-07T11:43:31;23.10;99.90
32522;DHT22;18963;51.504;5.316;2023-05-07T11:46:09;23.20;99.90
32522;DHT22;18963;51.504;5.316;2023-05-07T11:48:35;23.00;99.90
32522;DHT22;18963;51.504;5.316;2023-05-07T11:51:03;23.00;99.90
32522;DHT22;18963;51.504;5.316;2023-05-07T11:53:39;22.90;99.90
32522;DHT22;18963;51.504;5.316;2023-05-07T11:56:09;22.90;99.90
32522;DHT22;18963;51.504;5.316;2023-05-07T11:58:35;23.00;99.90
32522;DHT22;18963;51.504;5.316;2023-05-07T12:01:00;23.00;99.90
32522;DHT22;18963;51.504;5.316;2023-05-07T12:03:26;22.90;99.90
32522;DHT22;18963;51.504;5.316;2023-05-07T12:05:52;22.70;99.90
32522;DHT22;18963;51.504;5.316;2023-05-07T12:08:19;22.60;99.90
32522;DHT22;18963;51.504;5.316;2023-05-07T12:10:47;22.40;99.90
32522;DHT22;18963;51.504;5.316;2023-05-07T12:13:21;22.10;99.90
32522;DHT22;18963;51.504;5.316;2023-05-07T12:15:53;22.00;99.90
32522;DHT22;18963;51.504;5.316;2023-05-07T12:18:20;21.80;99.90
32522;DHT22;18963;51.504;5.316;2023-05-07T12:20:46;21.60;99.90
32522;DHT22;18963;51.504;5.316;2023-05-07T12:23:13;21.40;99.90
32522;DHT22;18963;51.504;5.316;2023-05-07T12:25:40;21.10;99.90
32522;DHT22;18963;51.504;5.316;2023-05-07T12:28:13;20.90;99.90
32522;DHT22;18963;51.504;5.316;2023-05-07T12:30:41;20.60;99.90
32522;DHT22;18963;51.504;5.316;2023-05-07T12:33:08;20.40;99.90
32522;DHT22;18963;51.504;5.316;2023-05-07T12:35:39;20.20;99.90
32522;DHT22;18963;51.504;5.316;2023-05-07T12:38:08;19.90;99.90
32522;DHT22;18963;51.504;5.316;2023-05-07T12:40:46;19.70;99.90
32522;DHT22;18963;51.504;5.316;2023-05-07T12:43:25;19.00;99.90
32522;DHT22;18963;51.504;5.316;2023-05-07T12:45:53;18.00;99.90
32522;DHT22;18963;51.504;5.316;2023-05-07T12:48:20;17.30;99.90
32522;DHT22;18963;51.504;5.316;2023-05-07T12:50:49;16.70;99.90
32522;DHT22;18963;51.504;5.316;2023-05-07T12:53:15;16.30;99.90
32522;DHT22;18963;51.504;5.316;2023-05-07T12:55:43;16.10;99.90
32522;DHT22;18963;51.504;5.316;2023-05-07T12:58:15;15.90;99.90
32522;DHT22;18963;51.504;5.316;2023-05-07T13:00:41;15.70;99.90
32522;DHT22;18963;51.504;5.316;2023-05-07T13:03:08;15.70;99.90
32522;DHT22;18963;51.504;5.316;2023-05-07T13:05:34;15.60;99.90
32522;DHT22;18963;51.504;5.316;2023-05-07T13:08:00;15.60;99.90
32522;DHT22;18963;51.504;5.316;2023-05-07T13:10:27;15.60;99.90
32522;DHT22;18963;51.504;5.316;2023-05-07T13:12:52;15.60;99.90
32522;DHT22;18963;51.504;5.316;2023-05-07T13:15:18;15.60;99.90
32522;DHT22;18963;51.504;5.316;2023-05-07T13:17:44;15.60;99.90
32522;DHT22;18963;51.504;5.316;2023-05-07T13:20:10;15.70;99.90
32522;DHT22;18963;51.504;5.316;2023-05-07T13:22:37;15.70;99.90
32522;DHT22;18963;51.504;5.316;2023-05-07T13:25:03;15.70;99.90
32522;DHT22;18963;51.504;5.316;2023-05-07T13:27:28;15.70;99.90
32522;DHT22;18963;51.504;5.316;2023-05-07T13:29:56;15.80;99.90
32522;DHT22;18963;51.504;5.316;2023-05-07T13:32:22;15.80;99.90
32522;DHT22;18963;51.504;5.316;2023-05-07T13:34:47;15.90;99.90
32522;DHT22;18963;51.504;5.316;2023-05-07T13:37:13;15.90;99.90
32522;DHT22;18963;51.504;5.316;2023-05-07T13:39:38;15.90;99.90
32522;DHT22;18963;51.504;5.316;2023-05-07T13:42:04;15.90;99.90
32522;DHT22;18963;51.504;5.316;2023-05-07T13:44:30;16.00;99.90
32522;DHT22;18963;51.504;5.316;2023-05-07T13:46:55;16.00;99.90
32522;DHT22;18963;51.504;5.316;2023-05-07T13:49:21;16.00;99.90
32522;DHT22;18963;51.504;5.316;2023-05-07T13:51:46;16.00;99.90
32522;DHT22;18963;51.504;5.316;2023-05-07T13:54:12;16.10;99.90
32522;DHT22;18963;51.504;5.316;2023-05-07T13:56:38;16.20;99.90
32522;DHT22;18963;51.504;5.316;2023-05-07T13:59:03;16.30;99.90
32522;DHT22;18963;51.504;5.316;2023-05-07T14:01:29;16.40;99.90
32522;DHT22;18963;51.504;5.316;2023-05-07T14:03:56;16.50;99.90
32522;DHT22;18963;51.504;5.316;2023-05-07T14:06:23;16.60;99.90
32522;DHT22;18963;51.504;5.316;2023-05-07T14:08:48;16.70;99.90
32522;DHT22;18963;51.504;5.316;2023-05-07T14:11:14;16.80;99.90
32522;DHT22;18963;51.504;5.316;2023-05-07T14:13:39;16.80;99.90
32522;DHT22;18963;51.504;5.316;2023-05-07T14:16:05;16.80;99.90
32522;DHT22;18963;51.504;5.316;2023-05-07T14:18:31;16.80;99.90
32522;DHT22;18963;51.504;5.316;2023-05-07T14:20:58;16.90;99.90
32522;DHT22;18963;51.504;5.316;2023-05-07T14:23:24;16.90;99.90
32522;DHT22;18963;51.504;5.316;2023-05-07T14:25:52;16.90;99.90
32522;DHT22;18963;51.504;5.316;2023-05-07T14:28:18;16.90;99.90
32522;DHT22;18963;51.504;5.316;2023-05-07T14:30:44;16.90;99.90
32522;DHT22;18963;51.504;5.316;2023-05-07T14:33:10;16.90;99.90
32522;DHT22;18963;51.504;5.316;2023-05-07T14:35:35;16.90;99.90
32522;DHT22;18963;51.504;5.316;2023-05-07T14:38:01;16.90;99.90
32522;DHT22;18963;51.504;5.316;2023-05-07T14:40:27;16.90;99.90
32522;DHT22;18963;51.504;5.316;2023-05-07T14:42:53;16.90;99.90
32522;DHT22;18963;51.504;5.316;2023-05-07T14:45:18;17.00;99.90
32522;DHT22;18963;51.504;5.316;2023-05-07T14:47:44;16.90;99.90
32522;DHT22;18963;51.504;5.316;2023-05-07T14:50:09;17.00;99.90
32522;DHT22;18963;51.504;5.316;2023-05-07T14:52:35;17.10;99.90
32522;DHT22;18963;51.504;5.316;2023-05-07T14:55:01;17.10;99.90
32522;DHT22;18963;51.504;5.316;2023-05-07T14:57:26;17.10;99.90
32522;DHT22;18963;51.504;5.316;2023-05-07T14:59:52;17.20;99.90
32522;DHT22;18963;51.504;5.316;2023-05-07T15:02:18;17.20;99.90
32522;DHT22;18963;51.504;5.316;2023-05-07T15:04:43;17.30;99.90
32522;DHT22;18963;51.504;5.316;2023-05-07T15:07:15;17.20;99.90
32522;DHT22;18963;51.504;5.316;2023-05-07T15:09:42;17.20;99.90
32522;DHT22;18963;51.504;5.316;2023-05-07T15:12:07;17.30;99.90
32522;DHT22;18963;51.504;5.316;2023-05-07T15:14:33;17.20;99.90
32522;DHT22;18963;51.504;5.316;2023-05-07T15:17:00;17.20;99.90
32522;DHT22;18963;51.504;5.316;2023-05-07T15:19:25;17.20;99.90
32522;DHT22;18963;51.504;5.316;2023-05-07T15:21:55;17.30;99.90
32522;DHT22;18963;51.504;5.316;2023-05-07T15:24:22;17.30;99.90
32522;DHT22;18963;51.504;5.316;2023-05-07T15:26:47;17.30;99.90
32522;DHT22;18963;51.504;5.316;2023-05-07T15:29:13;17.40;99.90
32522;DHT22;18963;51.504;5.316;2023-05-07T15:31:39;17.40;99.90
32522;DHT22;18963;51.504;5.316;2023-05-07T15:34:04;17.40;99.90
32522;DHT22;18963;51.504;5.316;2023-05-07T15:36:30;17.50;99.90
32522;DHT22;18963;51.504;5.316;2023-05-07T15:38:56;17.50;99.90
32522;DHT22;18963;51.504;5.316;2023-05-07T15:41:22;17.50;99.90
32522;DHT22;18963;51.504;5.316;2023-05-07T15:43:50;17.50;99.90